Time;durP1;ratioP1;P1;durP2;ratioP2;P2;SDS_P1;SDS_P2;PMS_P1;PMS_P2;Temp;Humidity;BMP_temperature;BMP_pressure;BME280_temperature;BME280_humidity;BME280_pressure;Samples;Min_cycle;Max_cycle;Signal;HPM_P1;HPM_P2
2022/04/13 00:00:37;;;;;;;2.75;0.40;;;;;;;6.43;59.08;100176.03;1704920;81;22142;-53
2022/04/13 00:03:04;;;;;;;3.83;0.57;;;;;;;6.46;59.49;100196.73;1780301;80;21964;-52
2022/04/13 00:05:32;;;;;;;2.37;0.55;;;;;;;6.41;59.33;100177.91;1769104;80;21551;-52
2022/04/13 00:08:00;;;;;;;1.87;0.33;;;;;;;6.39;59.65;100180.24;1769319;79;21136;-52
2022/04/13 00:10:29;;;;;;;0.98;0.30;;;;;;;6.40;59.46;100158.41;1753353;80;21152;-52
2022/04/13 00:12:55;;;;;;;3.45;0.60;;;;;;;6.41;59.47;100166.16;1754704;80;21152;-52
2022/04/13 00:15:24;;;;;;;1.47;0.30;;;;;;;6.43;60.18;100179.95;1760221;80;21068;-52
2022/04/13 00:17:51;;;;;;;2.55;0.30;;;;;;;6.35;60.54;100187.93;1737639;80;22312;-52
2022/04/13 00:20:18;;;;;;;3.12;0.65;;;;;;;6.30;60.47;100173.85;1773782;80;21054;-52
2022/04/13 00:22:46;;;;;;;1.57;0.30;;;;;;;6.37;60.80;100181.68;1783586;80;21014;-52
2022/04/13 00:25:12;;;;;;;0.42;0.20;;;;;;;6.37;61.33;100186.91;1763150;79;21641;-52
2022/04/13 00:27:40;;;;;;;0.95;0.20;;;;;;;6.30;61.18;100170.80;1716748;82;21637;-52
2022/04/13 00:30:10;;;;;;;3.60;0.60;;;;;;;6.30;61.53;100178.63;1716217;82;21459;-52
2022/04/13 00:32:36;;;;;;;3.90;0.60;;;;;;;6.26;61.90;100158.02;1714239;83;21238;-52
2022/04/13 00:35:05;;;;;;;2.55;0.60;;;;;;;6.29;61.51;100173.50;1727556;81;21092;-52
2022/04/13 00:37:32;;;;;;;1.50;0.47;;;;;;;6.24;61.95;100159.91;1736843;81;22266;-53
2022/04/13 00:39:59;;;;;;;1.62;0.37;;;;;;;6.22;62.08;100163.06;1699141;82;21768;-52
2022/04/13 00:42:28;;;;;;;1.90;0.42;;;;;;;6.22;62.44;100178.29;1696772;83;21101;-52
2022/04/13 00:44:55;;;;;;;1.10;0.30;;;;;;;6.24;62.72;100172.48;1709339;83;21082;-52
2022/04/13 00:47:21;;;;;;;3.12;0.60;;;;;;;6.21;62.33;100172.69;1708449;83;21111;-52
2022/04/13 00:49:50;;;;;;;2.25;0.80;;;;;;;6.14;62.33;100181.39;1702099;82;21042;-52
2022/04/13 00:52:18;;;;;;;3.15;0.75;;;;;;;6.14;62.56;100170.94;1686868;82;21129;-53
2022/04/13 00:54:48;;;;;;;1.30;0.33;;;;;;;6.19;62.50;100161.98;1676525;83;21187;-52
2022/04/13 00:57:16;;;;;;;3.75;0.35;;;;;;;6.25;62.36;100161.08;1699153;82;21070;-52
2022/04/13 00:59:44;;;;;;;2.72;0.40;;;;;;;6.22;62.63;100170.90;1707289;83;21109;-53
2022/04/13 01:02:12;;;;;;;1.55;0.30;;;;;;;6.23;63.15;100173.89;1696109;82;21902;-51
2022/04/13 01:04:40;;;;;;;2.20;0.50;;;;;;;6.26;62.79;100165.38;1739364;81;21027;-52
2022/04/13 01:07:08;;;;;;;3.08;0.50;;;;;;;6.23;62.69;100164.75;1698109;83;20995;-53
2022/04/13 01:09:37;;;;;;;2.80;0.70;;;;;;;6.22;63.05;100172.20;1716255;82;21094;-53
2022/04/13 01:12:06;;;;;;;2.42;0.50;;;;;;;6.21;63.63;100170.55;1700930;82;22357;-52
2022/04/13 01:14:34;;;;;;;3.45;0.60;;;;;;;6.25;64.04;100153.72;1720971;82;22387;-52
2022/04/13 01:17:03;;;;;;;2.92;0.72;;;;;;;6.27;63.39;100155.75;1699353;82;21022;-52
2022/04/13 01:19:32;;;;;;;2.02;0.50;;;;;;;6.21;63.44;100158.31;1735764;81;21070;-51
2022/04/13 01:22:17;;;;;;;1.52;0.40;;;;;;;6.13;63.55;100165.33;1718787;82;21489;-52
2022/04/13 01:24:46;;;;;;;3.15;0.68;;;;;;;6.14;63.32;100152.65;1714999;82;21033;-51
2022/04/13 01:27:14;;;;;;;2.92;0.70;;;;;;;6.22;63.16;100166.53;1696250;82;21199;-51
2022/04/13 01:29:44;;;;;;;2.90;0.55;;;;;;;6.20;62.83;100164.94;1708355;82;21669;-51
2022/04/13 01:32:11;;;;;;;2.02;0.50;;;;;;;6.16;62.58;100163.48;1716742;82;21895;-52
2022/04/13 01:34:50;;;;;;;2.10;0.50;;;;;;;6.13;62.62;100164.02;1729458;81;21073;-51
2022/04/13 01:37:16;;;;;;;1.10;0.30;;;;;;;6.22;63.09;100178.73;1694583;83;21133;-52
2022/04/13 01:39:45;;;;;;;3.47;0.65;;;;;;;6.21;63.21;100176.60;1707072;82;21089;-52
2022/04/13 01:42:13;;;;;;;1.52;0.50;;;;;;;6.14;63.03;100156.57;1717181;81;21077;-52
2022/04/13 01:44:41;;;;;;;1.82;0.53;;;;;;;6.14;63.19;100152.65;1727087;82;21248;-53
2022/04/13 01:47:09;;;;;;;2.08;0.50;;;;;;;6.19;63.28;100153.66;1711740;82;21153;-52
2022/04/13 01:49:37;;;;;;;2.17;0.70;;;;;;;6.22;63.31;100163.06;1700924;81;21081;-53
2022/04/13 01:52:05;;;;;;;1.72;0.40;;;;;;;6.19;62.86;100158.89;1702874;81;21161;-52
2022/04/13 01:54:33;;;;;;;2.10;0.60;;;;;;;6.21;62.96;100166.63;1688173;83;21018;-52
2022/04/13 01:57:00;;;;;;;1.57;0.37;;;;;;;6.26;62.85;100164.08;1697065;83;21945;-53
2022/04/13 01:59:27;;;;;;;1.70;0.40;;;;;;;6.25;61.87;100141.96;1688011;82;21086;-52
2022/04/13 02:01:53;;;;;;;2.75;0.42;;;;;;;6.31;62.03;100150.23;1706465;82;21056;-52
2022/04/13 02:04:25;;;;;;;2.83;0.75;;;;;;;6.33;61.91;100154.06;1701955;82;21691;-52
2022/04/13 02:06:53;;;;;;;1.85;0.60;;;;;;;6.33;61.88;100152.75;1705532;82;21054;-52
2022/04/13 02:09:21;;;;;;;2.12;0.70;;;;;;;6.30;61.36;100136.82;1711208;82;21039;-54
2022/04/13 02:11:49;;;;;;;4.10;0.80;;;;;;;6.32;60.82;100144.53;1694980;82;21041;-52
2022/04/13 02:14:18;;;;;;;2.85;0.72;;;;;;;6.31;60.92;100137.65;1686332;82;21109;-52
2022/04/13 02:16:46;;;;;;;3.55;0.75;;;;;;;6.24;61.20;100121.54;1702519;82;21018;-55
2022/04/13 02:19:14;;;;;;;2.15;0.50;;;;;;;6.19;61.85;100147.12;1706073;82;21052;-52
2022/04/13 02:21:41;;;;;;;1.72;0.30;;;;;;;6.22;62.31;100146.94;1704529;81;21161;-52
2022/04/13 02:24:09;;;;;;;2.02;0.57;;;;;;;6.13;62.76;100147.05;1712779;82;21098;-51
2022/04/13 02:26:37;;;;;;;3.17;0.70;;;;;;;6.10;63.04;100158.16;1709676;82;21022;-52
2022/04/13 02:29:04;;;;;;;3.45;0.70;;;;;;;6.11;63.38;100155.94;1700143;81;21146;-52
2022/04/13 02:31:33;;;;;;;3.92;0.80;;;;;;;6.11;62.93;100150.71;1702268;82;21066;-52
2022/04/13 02:34:04;;;;;;;7.90;0.93;;;;;;;6.09;62.53;100139.53;1712682;82;20991;-53
2022/04/13 02:36:33;;;;;;;4.22;0.80;;;;;;;5.95;62.44;100147.76;1696024;82;21531;-53
2022/04/13 02:39:01;;;;;;;4.05;0.70;;;;;;;6.00;62.55;100147.95;1702117;82;21047;-53
2022/04/13 02:41:28;;;;;;;2.35;0.60;;;;;;;6.05;62.70;100146.73;1700272;82;21225;-52
2022/04/13 02:43:56;;;;;;;1.55;0.40;;;;;;;6.09;62.51;100159.95;1697209;82;21063;-52
2022/04/13 02:46:22;;;;;;;2.47;0.78;;;;;;;6.06;62.71;100152.78;1701583;82;21083;-52
2022/04/13 02:48:50;;;;;;;4.17;0.75;;;;;;;6.04;62.39;100161.20;1722657;82;21067;-52
2022/04/13 02:51:16;;;;;;;4.22;0.53;;;;;;;6.11;62.51;100158.06;1697620;82;21133;-52
2022/04/13 02:53:43;;;;;;;1.95;0.60;;;;;;;6.12;62.22;100163.67;1690129;82;21158;-52
2022/04/13 02:56:10;;;;;;;2.87;0.60;;;;;;;6.13;62.46;100169.73;1721373;82;21051;-52
2022/04/13 02:58:37;;;;;;;2.60;0.70;;;;;;;6.07;62.84;100154.44;1712521;81;21079;-52
2022/04/13 03:01:06;;;;;;;2.58;0.60;;;;;;;6.13;63.15;100165.33;1706799;81;21386;-53
2022/04/13 03:03:33;;;;;;;4.50;1.05;;;;;;;6.11;62.97;100147.62;1718824;82;21129;-52
2022/04/13 03:06:01;;;;;;;4.85;0.55;;;;;;;6.13;62.97;100157.49;1714573;82;21571;-52
2022/04/13 03:08:28;;;;;;;3.05;0.80;;;;;;;6.04;63.22;100157.28;1720019;81;21093;-52
2022/04/13 03:10:56;;;;;;;3.62;0.80;;;;;;;6.00;63.37;100157.95;1709622;82;21114;-52
2022/04/13 03:13:24;;;;;;;1.72;0.47;;;;;;;6.03;63.53;100155.11;1713123;82;21153;-52
2022/04/13 03:15:52;;;;;;;2.52;0.65;;;;;;;5.99;63.72;100159.35;1699844;81;21054;-53
2022/04/13 03:18:20;;;;;;;2.42;0.60;;;;;;;6.00;63.82;100159.26;1700296;82;22919;-52
2022/04/13 03:20:46;;;;;;;3.33;0.85;;;;;;;5.97;63.82;100164.67;1711939;81;21044;-52
2022/04/13 03:23:12;;;;;;;2.40;0.60;;;;;;;5.99;63.77;100152.34;1701181;82;21050;-52
2022/04/13 03:25:39;;;;;;;2.50;0.65;;;;;;;5.99;63.51;100147.59;1702403;82;21777;-52
2022/04/13 03:28:07;;;;;;;1.42;0.40;;;;;;;6.01;63.55;100146.55;1706498;82;21077;-51
2022/04/13 03:30:34;;;;;;;2.22;0.50;;;;;;;6.03;63.48;100151.20;1706918;82;22224;-52
2022/04/13 03:33:00;;;;;;;2.77;0.57;;;;;;;6.05;63.21;100128.89;1707638;81;21025;-52
2022/04/13 03:35:27;;;;;;;4.67;1.10;;;;;;;6.01;63.61;100166.14;1702719;82;21076;-52
2022/04/13 03:37:55;;;;;;;3.85;0.90;;;;;;;6.03;63.89;100147.28;1705538;82;21101;-52
2022/04/13 03:40:23;;;;;;;2.20;0.90;;;;;;;6.00;64.38;100162.31;1701867;82;21081;-52
2022/04/13 03:42:49;;;;;;;3.22;0.93;;;;;;;6.01;64.45;100160.91;1705072;82;21164;-52
2022/04/13 03:45:17;;;;;;;2.85;0.70;;;;;;;6.05;64.14;100165.02;1700683;82;21067;-53
2022/04/13 03:47:44;;;;;;;2.52;0.70;;;;;;;5.98;64.43;100149.83;1702372;81;21208;-52
2022/04/13 03:50:11;;;;;;;2.00;0.62;;;;;;;6.00;64.64;100158.39;1701400;82;21059;-52
2022/04/13 03:52:38;;;;;;;1.17;0.40;;;;;;;5.98;64.41;100165.02;1706632;82;21189;-53
2022/04/13 03:55:08;;;;;;;2.45;0.60;;;;;;;5.99;64.54;100166.70;1706516;82;21163;-52
2022/04/13 03:57:36;;;;;;;3.58;0.68;;;;;;;6.02;65.24;100153.91;1697934;82;21111;-53
2022/04/13 04:00:07;;;;;;;2.98;0.53;;;;;;;6.00;65.30;100159.70;1707748;82;21065;-52
2022/04/13 04:02:39;;;;;;;1.35;0.30;;;;;;;6.06;64.85;100173.20;1710562;82;21044;-52
2022/04/13 04:05:06;;;;;;;2.10;0.60;;;;;;;6.03;64.46;100167.34;1703837;82;21066;-52
2022/04/13 04:07:33;;;;;;;2.60;0.50;;;;;;;6.04;64.30;100163.33;1698649;82;21843;-52
2022/04/13 04:10:01;;;;;;;2.30;0.45;;;;;;;6.05;64.30;100172.00;1708726;82;21011;-52
2022/04/13 04:12:28;;;;;;;5.75;0.78;;;;;;;6.07;64.55;100172.28;1706125;82;21609;-52
2022/04/13 04:15:00;;;;;;;2.37;0.50;;;;;;;6.11;64.56;100180.75;1702463;82;21075;-52
2022/04/13 04:17:27;;;;;;;2.05;0.40;;;;;;;6.05;64.04;100149.34;1701264;82;21272;-52
2022/04/13 04:19:56;;;;;;;1.80;0.40;;;;;;;6.05;64.01;100167.63;1701360;82;21457;-52
2022/04/13 04:22:24;;;;;;;1.90;0.50;;;;;;;6.05;64.05;100174.16;1711925;82;21066;-52
2022/04/13 04:24:51;;;;;;;1.35;0.30;;;;;;;6.08;64.18;100177.86;1710250;82;21090;-52
2022/04/13 04:27:20;;;;;;;1.25;0.20;;;;;;;6.08;63.75;100153.04;1711647;81;21098;-51
2022/04/13 04:29:48;;;;;;;1.25;0.35;;;;;;;6.08;63.35;100184.86;1698873;82;21366;-52
2022/04/13 04:32:16;;;;;;;2.45;0.37;;;;;;;6.06;63.69;100184.13;1709728;82;21043;-52
2022/04/13 04:34:44;;;;;;;2.58;0.40;;;;;;;6.12;63.64;100182.44;1702400;81;21125;-52
2022/04/13 04:37:11;;;;;;;2.00;0.57;;;;;;;6.18;63.44;100186.42;1710859;82;21103;-52
2022/04/13 04:39:38;;;;;;;2.25;0.70;;;;;;;6.17;63.23;100182.12;1697889;82;21081;-52
2022/04/13 04:42:06;;;;;;;1.27;0.37;;;;;;;6.12;63.26;100177.22;1706307;82;21074;-52
2022/04/13 04:44:32;;;;;;;1.57;0.40;;;;;;;6.08;63.48;100167.89;1700773;82;21791;-52
2022/04/13 04:47:00;;;;;;;1.50;0.25;;;;;;;6.02;63.65;100179.58;1706519;82;21161;-52
2022/04/13 04:49:28;;;;;;;2.58;0.47;;;;;;;6.10;63.64;100172.09;1705239;82;21077;-53
2022/04/13 04:51:54;;;;;;;2.60;0.50;;;;;;;6.08;63.87;100177.86;1707631;82;21075;-52
2022/04/13 04:54:21;;;;;;;1.55;0.40;;;;;;;6.06;64.16;100184.95;1688728;82;21078;-52
2022/04/13 04:56:50;;;;;;;1.75;0.40;;;;;;;6.09;63.36;100161.26;1701935;82;21533;-52
2022/04/13 04:59:16;;;;;;;2.85;0.50;;;;;;;6.07;63.66;100167.50;1697589;82;21052;-53
2022/04/13 05:01:43;;;;;;;3.05;0.60;;;;;;;6.06;64.08;100177.13;1699772;82;21606;-52
2022/04/13 05:04:09;;;;;;;1.98;0.50;;;;;;;6.01;64.15;100170.05;1705422;82;21050;-53
2022/04/13 05:06:36;;;;;;;1.32;0.30;;;;;;;6.07;64.45;100201.02;1703081;82;21703;-53
2022/04/13 05:09:03;;;;;;;1.70;0.50;;;;;;;6.08;64.35;100184.39;1711919;82;21832;-53
2022/04/13 05:11:30;;;;;;;2.92;0.65;;;;;;;6.03;64.20;100179.10;1706763;82;21094;-53
2022/04/13 05:13:57;;;;;;;2.58;0.50;;;;;;;6.01;64.49;100190.95;1712631;82;21243;-52
2022/04/13 05:16:25;;;;;;;1.92;0.47;;;;;;;6.01;64.73;100194.87;1712777;81;21101;-54
2022/04/13 05:18:51;;;;;;;4.33;0.68;;;;;;;6.00;64.39;100174.06;1702735;82;21148;-54
2022/04/13 05:21:19;;;;;;;1.10;0.30;;;;;;;6.05;64.69;100191.59;1705123;82;21160;-54
2022/04/13 05:23:45;;;;;;;2.72;0.40;;;;;;;5.98;64.45;100186.39;1706734;82;21515;-54
2022/04/13 05:26:12;;;;;;;2.67;0.40;;;;;;;6.01;64.73;100191.42;1707366;82;21078;-54
2022/04/13 05:28:40;;;;;;;1.32;0.42;;;;;;;6.03;65.07;100180.41;1696065;82;21053;-54
2022/04/13 05:31:08;;;;;;;1.45;0.40;;;;;;;6.00;65.21;100197.13;1698269;82;21065;-53
2022/04/13 05:33:35;;;;;;;1.85;0.50;;;;;;;5.98;65.38;100200.28;1701278;83;21241;-52
2022/04/13 05:36:04;;;;;;;2.15;0.50;;;;;;;6.06;65.65;100205.03;1689927;83;21032;-53
2022/04/13 05:38:31;;;;;;;3.50;0.60;;;;;;;6.10;65.60;100203.88;1717572;81;21093;-53
2022/04/13 05:40:57;;;;;;;2.58;0.42;;;;;;;6.03;65.66;100204.74;1698714;83;21126;-53
2022/04/13 05:43:25;;;;;;;2.70;0.78;;;;;;;5.97;65.74;100189.93;1722339;81;21101;-53
2022/04/13 05:45:52;;;;;;;2.22;0.60;;;;;;;5.98;65.87;100189.01;1711752;82;22128;-52
2022/04/13 05:48:19;;;;;;;3.25;0.88;;;;;;;5.99;65.96;100190.22;1691001;83;21579;-52
2022/04/13 05:50:46;;;;;;;1.20;0.45;;;;;;;5.97;66.08;100207.77;1697947;82;21570;-52
2022/04/13 05:53:14;;;;;;;1.72;0.53;;;;;;;5.92;66.18;100182.38;1702031;83;21139;-53
2022/04/13 05:55:40;;;;;;;0.98;0.35;;;;;;;6.03;66.42;100185.63;1701753;82;21610;-53
2022/04/13 05:58:09;;;;;;;1.75;0.40;;;;;;;5.95;66.65;100196.52;1707585;81;21551;-53
2022/04/13 06:00:39;;;;;;;1.72;0.50;;;;;;;5.96;66.73;100195.63;1696674;82;21067;-53
2022/04/13 06:03:05;;;;;;;1.77;0.50;;;;;;;5.98;66.74;100196.36;1717789;81;21177;-52
2022/04/13 06:05:33;;;;;;;1.45;0.45;;;;;;;6.03;66.92;100213.89;1700631;83;22282;-53
2022/04/13 06:08:00;;;;;;;2.58;0.50;;;;;;;6.00;67.14;100206.72;1706506;81;22201;-52
2022/04/13 06:10:28;;;;;;;2.17;0.50;;;;;;;5.94;67.44;100205.31;1715755;81;21031;-52
2022/04/13 06:12:55;;;;;;;2.95;0.47;;;;;;;6.01;67.40;100214.94;1690627;82;21035;-52
2022/04/13 06:15:23;;;;;;;1.32;0.37;;;;;;;5.99;67.44;100211.11;1703756;82;21634;-52
2022/04/13 06:17:51;;;;;;;2.37;0.50;;;;;;;5.96;67.52;100191.71;1701745;82;22106;-52
2022/04/13 06:20:18;;;;;;;2.70;0.65;;;;;;;6.02;67.72;100205.70;1693655;83;21572;-53
2022/04/13 06:22:46;;;;;;;3.17;1.15;;;;;;;6.00;67.61;100212.80;1713441;81;22097;-52
2022/04/13 06:25:12;;;;;;;3.15;0.62;;;;;;;5.93;67.49;100226.68;1686975;83;21681;-53
2022/04/13 06:27:44;;;;;;;1.85;0.53;;;;;;;6.00;67.71;100223.25;1704027;82;22355;-53
2022/04/13 06:30:09;;;;;;;1.85;0.50;;;;;;;6.02;67.06;100218.76;1695986;81;21082;-52
2022/04/13 06:32:42;;;;;;;1.05;0.35;;;;;;;6.10;67.01;100225.64;1696702;82;21555;-53
2022/04/13 06:35:11;;;;;;;2.22;0.55;;;;;;;6.00;67.35;100218.02;1700651;81;21097;-52
2022/04/13 06:37:43;;;;;;;1.87;0.50;;;;;;;6.07;67.79;100237.59;1705014;82;21053;-52
2022/04/13 06:40:12;;;;;;;1.95;0.50;;;;;;;6.12;68.20;100231.59;1706337;82;21124;-52
2022/04/13 06:42:40;;;;;;;2.37;0.55;;;;;;;6.14;68.47;100243.26;1732610;81;21098;-52
2022/04/13 06:45:10;;;;;;;1.80;0.53;;;;;;;6.12;68.72;100228.16;1705542;82;21028;-52
2022/04/13 06:47:37;;;;;;;2.55;0.68;;;;;;;6.11;69.09;100231.69;1726054;81;21125;-52
2022/04/13 06:50:07;;;;;;;1.35;0.50;;;;;;;6.12;69.01;100244.66;1721290;81;21043;-52
2022/04/13 06:52:34;;;;;;;1.85;0.37;;;;;;;6.08;69.50;100243.16;1703668;81;21569;-52
2022/04/13 06:55:02;;;;;;;1.85;0.60;;;;;;;6.09;69.44;100246.63;1707642;82;21164;-52
2022/04/13 06:57:33;;;;;;;1.87;0.57;;;;;;;6.00;69.70;100246.75;1713676;81;21109;-52
2022/04/13 06:59:59;;;;;;;3.05;0.80;;;;;;;6.03;70.06;100254.84;1694171;82;21179;-52
2022/04/13 07:02:26;;;;;;;1.85;0.50;;;;;;;6.01;70.22;100239.75;1722886;81;21060;-52
2022/04/13 07:04:53;;;;;;;2.90;0.62;;;;;;;6.06;69.92;100245.04;1718191;81;21038;-52
2022/04/13 07:07:20;;;;;;;2.15;0.40;;;;;;;6.04;69.82;100255.23;1736884;81;21330;-52
2022/04/13 07:09:48;;;;;;;4.17;0.90;;;;;;;6.01;70.09;100254.94;1722609;81;21139;-52
2022/04/13 07:12:15;;;;;;;1.37;0.25;;;;;;;6.00;69.54;100261.12;1705976;81;21137;-52
2022/04/13 07:14:42;;;;;;;1.70;0.50;;;;;;;6.07;69.76;100266.32;1704559;81;21058;-53
2022/04/13 07:17:10;;;;;;;2.30;0.70;;;;;;;6.03;69.65;100249.14;1702255;83;21067;-53
2022/04/13 07:19:37;;;;;;;1.17;0.35;;;;;;;6.08;69.28;100261.45;1687541;83;21109;-53
2022/04/13 07:22:04;;;;;;;2.12;0.53;;;;;;;6.07;68.94;100266.77;1697187;82;21137;-53
2022/04/13 07:24:31;;;;;;;1.07;0.30;;;;;;;6.08;69.19;100264.06;1693322;83;21271;-53
2022/04/13 07:26:59;;;;;;;1.70;0.40;;;;;;;6.12;69.28;100259.51;1703619;81;21067;-53
2022/04/13 07:29:27;;;;;;;1.12;0.23;;;;;;;6.11;68.85;100271.71;1694252;82;21073;-53
2022/04/13 07:31:53;;;;;;;1.92;0.55;;;;;;;6.20;68.33;100262.44;1696941;83;21140;-53
2022/04/13 07:34:21;;;;;;;1.72;0.50;;;;;;;6.20;68.46;100282.52;1694091;82;21134;-51
2022/04/13 07:36:48;;;;;;;3.40;0.90;;;;;;;6.14;68.78;100272.83;1705189;82;21109;-52
2022/04/13 07:39:14;;;;;;;2.02;0.50;;;;;;;6.16;68.70;100267.98;1694801;82;21105;-52
2022/04/13 07:41:43;;;;;;;1.92;0.70;;;;;;;6.18;68.48;100273.94;1706177;82;21086;-52
2022/04/13 07:44:11;;;;;;;2.62;0.70;;;;;;;6.11;68.84;100278.24;1706667;81;21780;-52
2022/04/13 07:46:38;;;;;;;1.92;0.68;;;;;;;6.12;69.13;100277.31;1711360;82;22474;-52
2022/04/13 07:49:06;;;;;;;1.47;0.60;;;;;;;6.16;69.40;100287.10;1699290;82;22131;-51
2022/04/13 07:51:34;;;;;;;2.52;0.50;;;;;;;6.12;69.56;100285.16;1712068;81;21043;-51
2022/04/13 07:54:05;;;;;;;1.85;0.50;;;;;;;6.05;69.14;100286.93;1704061;82;21091;-51
2022/04/13 07:56:30;;;;;;;2.35;0.70;;;;;;;6.09;68.81;100285.34;1706851;82;21291;-51
2022/04/13 07:58:57;;;;;;;2.12;0.42;;;;;;;6.03;68.97;100263.98;1703648;82;21128;-51
2022/04/13 08:01:24;;;;;;;2.50;0.60;;;;;;;6.12;68.97;100296.91;1715610;82;21159;-51
2022/04/13 08:03:51;;;;;;;2.35;0.68;;;;;;;6.14;69.10;100306.79;1719498;82;21067;-54
2022/04/13 08:06:19;;;;;;;2.20;0.42;;;;;;;6.19;68.79;100294.75;1705486;82;21121;-51
2022/04/13 08:08:46;;;;;;;3.33;0.60;;;;;;;6.15;68.73;100299.78;1711243;83;21118;-51
2022/04/13 08:11:13;;;;;;;2.95;0.75;;;;;;;6.20;68.77;100298.19;1700775;83;21162;-52
2022/04/13 08:13:40;;;;;;;2.15;0.60;;;;;;;6.28;68.61;100303.78;1697142;82;21109;-54
2022/04/13 08:16:07;;;;;;;2.98;0.85;;;;;;;6.26;68.58;100301.73;1697618;82;21046;-52
2022/04/13 08:18:35;;;;;;;2.22;0.70;;;;;;;6.22;68.32;100295.01;1686727;82;21045;-53
2022/04/13 08:21:04;;;;;;;2.20;0.70;;;;;;;6.24;68.08;100299.22;1687715;83;21078;-52
2022/04/13 08:23:30;;;;;;;2.52;0.78;;;;;;;6.29;67.98;100308.08;1700202;83;22372;-52
2022/04/13 08:25:57;;;;;;;1.40;0.53;;;;;;;6.27;67.79;100304.70;1695220;83;22247;-53
2022/04/13 08:28:24;;;;;;;2.15;0.62;;;;;;;6.22;68.12;100308.94;1696004;82;21102;-51
2022/04/13 08:30:50;;;;;;;2.62;0.65;;;;;;;6.33;67.98;100322.14;1693193;82;21047;-52
2022/04/13 08:33:17;;;;;;;2.30;0.70;;;;;;;6.35;67.64;100319.42;1696399;82;21858;-51
2022/04/13 08:35:47;;;;;;;3.75;0.60;;;;;;;6.35;67.91;100314.20;1694911;83;21016;-52
2022/04/13 08:38:14;;;;;;;2.65;1.00;;;;;;;6.44;67.52;100308.84;1708809;82;22185;-52
2022/04/13 08:40:49;;;;;;;2.85;0.70;;;;;;;6.43;66.94;100315.86;1718049;80;21722;-52
2022/04/13 08:43:20;;;;;;;1.95;0.60;;;;;;;6.45;67.09;100323.13;1690288;83;21044;-52
2022/04/13 08:45:56;;;;;;;1.37;0.40;;;;;;;6.32;67.16;100311.78;1676572;83;21035;-52
2022/04/13 08:48:23;;;;;;;3.23;0.80;;;;;;;6.45;67.36;100327.05;1701456;82;21033;-52
2022/04/13 08:51:00;;;;;;;2.52;0.70;;;;;;;6.44;67.37;100322.78;1699896;83;21865;-52
2022/04/13 08:53:30;;;;;;;2.25;0.70;;;;;;;6.36;67.19;100313.28;1692211;82;21076;-52
2022/04/13 08:55:58;;;;;;;2.42;0.60;;;;;;;6.40;67.40;100321.76;1715469;81;21076;-53
2022/04/13 08:58:52;;;;;;;1.80;0.50;;;;;;;6.39;67.07;100324.84;1705123;82;21035;-52
2022/04/13 09:01:32;;;;;;;3.40;0.95;;;;;;;6.42;67.14;100316.81;1700997;82;21061;-53
2022/04/13 09:04:00;;;;;;;3.67;0.90;;;;;;;6.36;67.57;100308.05;1703134;81;21162;-54
2022/04/13 09:06:27;;;;;;;2.25;0.57;;;;;;;6.39;67.51;100319.63;1697223;82;21689;-52
2022/04/13 09:09:00;;;;;;;3.27;0.70;;;;;;;6.37;67.15;100301.90;1701707;81;21046;-52
2022/04/13 09:11:28;;;;;;;2.20;0.65;;;;;;;6.39;67.14;100330.52;1699876;82;21065;-52
2022/04/13 09:13:55;;;;;;;2.33;0.60;;;;;;;6.37;67.09;100321.50;1704409;81;21107;-52
2022/04/13 09:16:22;;;;;;;2.45;0.70;;;;;;;6.35;67.00;100312.89;1712405;82;21153;-52
2022/04/13 09:18:50;;;;;;;3.20;1.00;;;;;;;6.40;67.13;100313.91;1708079;82;21131;-52
2022/04/13 09:21:18;;;;;;;2.77;0.47;;;;;;;6.39;67.14;100325.30;1706128;82;21052;-52
2022/04/13 09:23:47;;;;;;;3.60;0.80;;;;;;;6.47;67.08;100326.95;1710555;82;21071;-52
2022/04/13 09:26:15;;;;;;;1.60;0.57;;;;;;;6.39;67.01;100314.39;1706209;82;21010;-52
2022/04/13 09:28:43;;;;;;;3.22;0.80;;;;;;;6.44;67.10;100325.39;1705893;82;21126;-52
2022/04/13 09:31:09;;;;;;;1.57;0.55;;;;;;;6.48;66.75;100338.63;1699594;82;21149;-52
2022/04/13 09:33:36;;;;;;;1.47;0.50;;;;;;;6.58;66.76;100344.59;1707585;82;21054;-52
2022/04/13 09:36:02;;;;;;;2.87;0.80;;;;;;;6.57;66.75;100336.36;1703500;82;21154;-52
2022/04/13 09:38:29;;;;;;;1.45;0.60;;;;;;;6.59;66.81;100341.02;1702050;82;21038;-51
2022/04/13 09:41:11;;;;;;;3.67;1.02;;;;;;;6.66;66.64;100340.54;1704559;81;21143;-52
2022/04/13 09:43:38;;;;;;;2.75;0.98;;;;;;;6.69;66.46;100341.66;1701927;81;22316;-52
2022/04/13 09:46:04;;;;;;;1.75;0.53;;;;;;;6.64;66.24;100323.26;1703024;82;21634;-52
2022/04/13 09:48:34;;;;;;;1.85;0.70;;;;;;;6.67;66.29;100354.00;1694215;82;21040;-52
2022/04/13 09:51:03;;;;;;;2.15;0.62;;;;;;;6.69;66.17;100352.56;1701845;82;21146;-52
2022/04/13 09:53:29;;;;;;;1.72;0.50;;;;;;;6.70;66.03;100354.25;1706245;82;22181;-52
2022/04/13 09:57:44;;;;;;;2.72;0.55;;;;;;;6.74;66.06;100367.52;1794466;79;22662;-52
2022/04/13 10:00:13;;;;;;;2.33;0.55;;;;;;;6.77;66.07;100358.62;1755135;81;20983;-52
2022/04/13 10:02:42;;;;;;;1.47;0.45;;;;;;;6.70;66.26;100365.54;1705258;81;21205;-53
2022/04/13 10:05:16;;;;;;;1.40;0.50;;;;;;;6.70;66.50;100364.71;1750350;80;21027;-53
2022/04/13 10:07:44;;;;;;;2.10;0.50;;;;;;;6.76;66.49;100372.17;1752789;80;21344;-52
2022/04/13 10:10:24;;;;;;;1.35;0.40;;;;;;;6.67;66.18;100362.28;1753796;81;21010;-52
2022/04/13 10:12:51;;;;;;;1.35;0.40;;;;;;;6.68;66.77;100344.37;1753649;80;21055;-52
2022/04/13 10:15:18;;;;;;;1.32;0.37;;;;;;;6.67;66.88;100374.05;1752125;81;21215;-52
2022/04/13 10:17:45;;;;;;;1.82;0.30;;;;;;;6.72;67.03;100371.16;1745344;80;21014;-52
2022/04/13 10:20:12;;;;;;;1.45;0.35;;;;;;;6.66;66.99;100384.16;1754773;81;21050;-52
2022/04/13 10:22:59;;;;;;;1.85;0.33;;;;;;;6.66;67.15;100386.30;1751951;80;21084;-52
2022/04/13 10:25:31;;;;;;;1.27;0.40;;;;;;;6.72;67.16;100386.36;1749263;81;21050;-53
2022/04/13 10:27:59;;;;;;;1.30;0.25;;;;;;;6.69;67.40;100389.17;1751042;80;21958;-53
2022/04/13 10:30:32;;;;;;;1.95;0.30;;;;;;;6.63;66.78;100371.28;1746834;80;21015;-52
2022/04/13 10:33:04;;;;;;;1.52;0.30;;;;;;;6.66;66.50;100401.16;1746564;80;21012;-53
2022/04/13 10:35:32;;;;;;;1.42;0.30;;;;;;;6.63;66.54;100389.58;1719065;83;21089;-52
2022/04/13 10:38:00;;;;;;;0.72;0.20;;;;;;;6.55;66.96;100399.68;1719422;81;21113;-52
2022/04/13 10:40:33;;;;;;;1.67;0.30;;;;;;;6.60;67.00;100393.69;1718513;82;21202;-53
2022/04/13 10:43:02;;;;;;;1.05;0.25;;;;;;;6.54;67.15;100388.39;1715908;83;21126;-51
2022/04/13 10:45:29;;;;;;;1.25;0.37;;;;;;;6.60;67.40;100393.69;1718687;83;21077;-52
2022/04/13 10:48:10;;;;;;;1.05;0.30;;;;;;;6.62;67.27;100376.13;1714067;82;21539;-52
2022/04/13 10:50:59;;;;;;;1.07;0.20;;;;;;;6.67;66.78;100376.22;1719695;83;21639;-53
2022/04/13 10:53:34;;;;;;;1.35;0.35;;;;;;;6.65;66.74;100396.85;1717643;81;21018;-53
2022/04/13 10:56:03;;;;;;;1.92;0.40;;;;;;;6.65;66.30;100398.16;1714073;83;21154;-52
2022/04/13 10:58:49;;;;;;;1.35;0.30;;;;;;;6.70;66.20;100393.47;1702400;83;21517;-52
2022/04/13 11:01:15;;;;;;;1.40;0.53;;;;;;;6.68;66.23;100394.88;1724674;81;21134;-52
2022/04/13 11:03:42;;;;;;;1.10;0.30;;;;;;;6.70;66.42;100400.02;1698463;83;21055;-52
2022/04/13 11:06:10;;;;;;;1.05;0.23;;;;;;;6.73;66.61;100397.69;1708919;82;21779;-52
2022/04/13 11:08:59;;;;;;;1.20;0.25;;;;;;;6.76;66.41;100387.86;1698246;82;21042;-52
2022/04/13 11:11:29;;;;;;;1.75;0.40;;;;;;;6.73;66.62;100405.05;1715793;82;21027;-52
2022/04/13 11:13:57;;;;;;;1.62;0.30;;;;;;;6.72;66.72;100399.92;1724073;81;21556;-52
2022/04/13 11:16:27;;;;;;;1.35;0.40;;;;;;;6.71;66.35;100403.01;1730916;81;21591;-52
2022/04/13 11:19:10;;;;;;;2.10;0.37;;;;;;;6.65;66.49;100400.77;1739278;81;21175;-53
2022/04/13 11:21:54;;;;;;;2.02;0.40;;;;;;;6.64;66.75;100418.25;1736875;80;21023;-53
2022/04/13 11:24:50;;;;;;;0.85;0.30;;;;;;;6.65;66.71;100412.54;1692968;82;21098;-53
2022/04/13 11:27:17;;;;;;;1.50;0.40;;;;;;;6.63;67.06;100398.73;1736770;81;21051;-53
2022/04/13 11:29:59;;;;;;;0.88;0.35;;;;;;;6.59;67.09;100399.84;1730487;80;21046;-52
2022/04/13 11:32:33;;;;;;;2.52;0.30;;;;;;;6.62;67.29;100398.34;1725352;81;21166;-52
2022/04/13 11:35:02;;;;;;;1.62;0.40;;;;;;;6.61;67.14;100386.23;1726722;81;21075;-52
2022/04/13 11:37:41;;;;;;;1.00;0.30;;;;;;;6.59;67.36;100405.08;1734860;81;21038;-54
2022/04/13 11:40:13;;;;;;;0.98;0.30;;;;;;;6.55;67.76;100410.97;1705266;83;21122;-52
2022/04/13 11:42:48;;;;;;;1.57;0.40;;;;;;;6.56;68.24;100418.36;1707801;82;21489;-52